Time;durP1;ratioP1;P1;durP2;ratioP2;P2;SDS_P1;SDS_P2;PMS_P1;PMS_P2;Temp;Humidity;BMP_temperature;BMP_pressure;BME280_temperature;BME280_humidity;BME280_pressure;Samples;Min_cycle;Max_cycle;Signal;HPM_P1;HPM_P2
2022/04/22 00:00:08;;;;;;;13.82;6.05;;;12.60;99.90;;;;;;5032220;28;20045;-63
2022/04/22 00:02:34;;;;;;;15.30;6.75;;;12.60;99.90;;;;;;5041333;28;20043;-63
2022/04/22 00:05:00;;;;;;;14.95;6.22;;;12.60;99.90;;;;;;5056683;28;20048;-64
2022/04/22 00:07:28;;;;;;;15.23;6.60;;;12.60;99.90;;;;;;5054575;28;20087;-63
2022/04/22 00:09:54;;;;;;;13.43;6.65;;;12.60;99.90;;;;;;5052484;28;20020;-63
2022/04/22 00:12:20;;;;;;;14.40;6.57;;;12.60;99.90;;;;;;5060252;28;20024;-63
2022/04/22 00:14:45;;;;;;;13.60;6.53;;;12.70;99.90;;;;;;5049603;28;20533;-63
2022/04/22 00:17:11;;;;;;;11.18;6.20;;;12.70;99.90;;;;;;5051486;28;20070;-64
2022/04/22 00:19:37;;;;;;;12.60;5.93;;;12.60;99.90;;;;;;5041415;28;20037;-63
2022/04/22 00:22:02;;;;;;;11.55;5.82;;;12.70;99.90;;;;;;5036450;28;20109;-63
2022/04/22 00:24:28;;;;;;;12.15;6.10;;;12.60;99.90;;;;;;5035919;28;20075;-63
2022/04/22 00:26:54;;;;;;;14.05;6.45;;;12.60;99.90;;;;;;5031764;28;20038;-62
2022/04/22 00:29:19;;;;;;;13.60;6.30;;;12.60;99.90;;;;;;5044697;28;20411;-62
2022/04/22 00:31:45;;;;;;;17.45;6.50;;;12.60;99.90;;;;;;5050493;28;20041;-63
2022/04/22 00:34:10;;;;;;;13.75;6.35;;;12.60;99.90;;;;;;5051521;28;20029;-63
2022/04/22 00:36:36;;;;;;;14.02;6.10;;;12.60;99.90;;;;;;5049568;28;20048;-63
2022/04/22 00:39:02;;;;;;;12.43;5.68;;;12.60;99.90;;;;;;5047291;28;20036;-63
2022/04/22 00:41:27;;;;;;;11.18;5.88;;;12.60;99.90;;;;;;5040914;28;20049;-63
2022/04/22 00:43:53;;;;;;;13.13;6.05;;;12.60;99.90;;;;;;5043106;28;20103;-63
2022/04/22 00:46:19;;;;;;;11.93;6.40;;;12.60;99.90;;;;;;5049881;28;20032;-62
2022/04/22 00:48:45;;;;;;;12.98;5.72;;;12.60;99.90;;;;;;5053330;28;20036;-66
2022/04/22 00:51:12;;;;;;;14.30;5.75;;;12.60;99.90;;;;;;5039740;28;20026;-65
2022/04/22 00:53:40;;;;;;;11.20;5.00;;;12.70;99.90;;;;;;5044533;28;20021;-65
2022/04/22 00:56:08;;;;;;;11.93;5.35;;;12.70;99.90;;;;;;5049600;28;20457;-65
2022/04/22 00:58:36;;;;;;;11.95;5.90;;;12.60;99.90;;;;;;5047042;28;20036;-64
2022/04/22 01:01:02;;;;;;;13.55;5.70;;;12.60;99.90;;;;;;5042277;28;20067;-66
2022/04/22 01:03:28;;;;;;;11.18;5.50;;;12.60;99.90;;;;;;5030577;28;20033;-63
2022/04/22 01:11:31;;;;;;;10.70;5.68;;;12.70;99.90;;;;;;5028460;28;20045;-64
2022/04/22 01:13:58;;;;;;;12.20;5.15;;;12.70;99.90;;;;;;5032574;28;20021;-66
2022/04/22 01:16:24;;;;;;;9.48;4.50;;;12.70;99.90;;;;;;5044302;28;20052;-62
2022/04/22 01:18:50;;;;;;;10.27;4.18;;;12.70;99.90;;;;;;5036897;28;20069;-65
2022/04/22 01:21:15;;;;;;;8.45;4.45;;;12.80;99.90;;;;;;5044708;28;20021;-63
2022/04/22 01:23:41;;;;;;;10.35;4.43;;;12.80;99.90;;;;;;5051142;28;20402;-63
2022/04/22 01:26:07;;;;;;;10.20;4.28;;;12.90;99.90;;;;;;5046760;28;20026;-62
2022/04/22 01:28:33;;;;;;;9.98;4.18;;;12.90;99.90;;;;;;5051514;28;20028;-66
2022/04/22 01:30:59;;;;;;;14.10;4.88;;;12.90;99.90;;;;;;5047059;28;20026;-64
2022/04/22 01:33:25;;;;;;;7.55;3.90;;;12.90;99.90;;;;;;5053884;28;20036;-63
2022/04/22 01:35:51;;;;;;;9.82;4.10;;;12.90;99.90;;;;;;5053947;28;20029;-66
2022/04/22 02:02:41;;;;;;;8.33;3.90;;;13.00;99.90;;;;;;5054411;28;20549;-66
2022/04/22 02:05:12;;;;;;;6.53;3.13;;;13.00;99.90;;;;;;5055050;28;20025;-64
2022/04/22 02:07:41;;;;;;;9.18;3.85;;;13.00;99.90;;;;;;5055118;28;20060;-64
2022/04/22 02:10:08;;;;;;;7.45;4.13;;;13.00;99.90;;;;;;5055086;28;20029;-65
2022/04/22 02:12:33;;;;;;;6.25;3.75;;;13.00;99.90;;;;;;5057166;28;20021;-64
2022/04/22 02:14:59;;;;;;;8.85;4.03;;;13.00;99.90;;;;;;5051970;28;20376;-65
2022/04/22 02:17:25;;;;;;;8.65;3.88;;;12.90;99.90;;;;;;5052033;28;20163;-64
2022/04/22 02:19:50;;;;;;;10.80;4.43;;;12.90;99.90;;;;;;5067262;28;20032;-64
2022/04/22 02:22:16;;;;;;;7.32;3.90;;;12.90;99.90;;;;;;5054332;28;20349;-63
2022/04/22 02:24:42;;;;;;;8.95;4.03;;;13.00;99.90;;;;;;5052984;28;20787;-62
2022/04/22 02:29:51;;;;;;;9.02;4.13;;;13.00;99.90;;;;;;5037037;28;20072;-65
2022/04/22 02:32:17;;;;;;;11.82;4.45;;;13.00;99.90;;;;;;5033734;28;20438;-65
2022/04/22 02:34:43;;;;;;;9.20;4.30;;;12.90;99.90;;;;;;5048230;28;20032;-63
2022/04/22 02:37:09;;;;;;;9.65;4.05;;;12.90;99.90;;;;;;5050869;28;20021;-66
2022/04/22 02:39:34;;;;;;;9.18;4.07;;;12.90;99.90;;;;;;5053846;28;20083;-64
2022/04/22 02:47:28;;;;;;;10.85;5.03;;;12.80;99.90;;;;;;5052284;28;20385;-64
2022/04/22 02:49:54;;;;;;;12.77;4.75;;;12.80;99.90;;;;;;5034839;28;20017;-64
2022/04/22 02:52:19;;;;;;;10.48;4.97;;;12.80;99.90;;;;;;5039567;28;20419;-63
2022/04/22 02:54:45;;;;;;;12.05;4.55;;;12.80;99.90;;;;;;5041398;28;20103;-65
2022/04/22 02:57:10;;;;;;;8.90;4.05;;;12.70;99.90;;;;;;5041915;28;20017;-66
2022/04/22 02:59:39;;;;;;;8.65;4.68;;;12.70;99.90;;;;;;5053937;28;20469;-67
2022/04/22 03:02:05;;;;;;;14.48;5.38;;;12.60;99.90;;;;;;5049632;28;20021;-65
2022/04/22 03:04:31;;;;;;;10.52;5.50;;;12.40;99.90;;;;;;5052445;28;20056;-64
2022/04/22 03:06:57;;;;;;;11.52;5.55;;;12.40;99.90;;;;;;5045198;28;20052;-65
2022/04/22 03:09:23;;;;;;;12.23;5.75;;;12.30;99.90;;;;;;5033812;28;20115;-67
2022/04/22 03:11:49;;;;;;;13.23;5.97;;;12.20;99.90;;;;;;5044083;28;20080;-63
2022/04/22 03:14:15;;;;;;;14.48;5.78;;;12.10;99.90;;;;;;5043623;28;20722;-65
2022/04/22 03:16:42;;;;;;;14.73;6.28;;;12.00;99.90;;;;;;5051632;28;20025;-64
2022/04/22 03:19:08;;;;;;;14.48;6.18;;;11.90;99.90;;;;;;5052618;28;20083;-63
2022/04/22 03:21:34;;;;;;;16.25;6.65;;;11.90;99.90;;;;;;5050430;28;20045;-64
2022/04/22 03:24:00;;;;;;;15.63;6.35;;;11.80;99.90;;;;;;5032641;28;20082;-66
2022/04/22 03:26:26;;;;;;;12.70;6.25;;;11.70;99.90;;;;;;5043299;28;20044;-66
2022/04/22 03:28:52;;;;;;;13.98;7.95;;;11.70;99.90;;;;;;5052119;28;20027;-66
2022/04/22 03:31:18;;;;;;;17.88;7.25;;;11.60;99.90;;;;;;5049073;28;20017;-63
2022/04/22 03:33:44;;;;;;;13.68;7.22;;;11.50;99.90;;;;;;5037747;28;20021;-63
2022/04/22 03:36:09;;;;;;;14.98;7.15;;;11.50;99.90;;;;;;5053508;28;20082;-62
2022/04/22 03:38:35;;;;;;;14.05;7.07;;;11.50;99.90;;;;;;5037976;28;20037;-64
2022/04/22 03:41:02;;;;;;;20.02;8.65;;;11.40;99.90;;;;;;5036292;28;20112;-67
2022/04/22 03:43:27;;;;;;;19.60;7.45;;;11.40;99.90;;;;;;5038203;28;20017;-66
2022/04/22 03:45:56;;;;;;;16.02;7.70;;;11.40;99.90;;;;;;5046731;28;20031;-64
2022/04/22 03:48:22;;;;;;;17.38;7.65;;;11.40;99.90;;;;;;5049847;28;20029;-67
2022/04/22 03:50:47;;;;;;;18.05;8.02;;;11.30;99.90;;;;;;5047448;28;20469;-66
2022/04/22 03:53:13;;;;;;;14.95;7.22;;;11.30;99.90;;;;;;5041798;28;20021;-65
2022/04/22 03:55:40;;;;;;;16.55;7.75;;;11.30;99.90;;;;;;5038290;28;20145;-65
2022/04/22 03:58:12;;;;;;;16.70;7.45;;;11.30;99.90;;;;;;5040075;28;20021;-64
2022/04/22 04:00:46;;;;;;;16.50;7.63;;;11.30;99.90;;;;;;5038954;28;20143;-65
2022/04/22 04:03:14;;;;;;;16.38;8.05;;;11.20;99.90;;;;;;5040637;28;20104;-66
2022/04/22 04:05:41;;;;;;;17.65;7.90;;;11.20;99.90;;;;;;5051463;28;20029;-63
2022/04/22 04:08:10;;;;;;;17.13;8.00;;;11.20;99.90;;;;;;5048775;28;20056;-64
2022/04/22 04:16:05;;;;;;;19.52;8.93;;;11.20;99.90;;;;;;5053260;28;20032;-64
2022/04/22 04:18:39;;;;;;;18.50;8.40;;;11.20;99.90;;;;;;5050360;28;20032;-66
2022/04/22 04:23:55;;;;;;;16.42;8.45;;;11.10;99.90;;;;;;5047525;28;20039;-62
2022/04/22 04:26:24;;;;;;;19.77;9.15;;;11.20;99.90;;;;;;5050300;28;20025;-65
2022/04/22 04:28:52;;;;;;;20.20;8.77;;;11.20;99.90;;;;;;5038853;28;20025;-64
2022/04/22 04:31:18;;;;;;;19.35;8.85;;;11.20;99.90;;;;;;5040142;28;20057;-67
2022/04/22 04:33:44;;;;;;;17.63;8.75;;;11.10;99.90;;;;;;5043316;28;20036;-66
2022/04/22 04:36:10;;;;;;;17.83;8.55;;;11.10;99.90;;;;;;5051596;28;20041;-64
2022/04/22 04:38:37;;;;;;;24.52;9.68;;;11.10;99.90;;;;;;5051120;28;20040;-64
2022/04/22 04:41:04;;;;;;;18.50;9.02;;;11.10;99.90;;;;;;5049445;28;20078;-65
2022/04/22 04:43:31;;;;;;;16.67;7.60;;;11.10;99.90;;;;;;5047080;28;20424;-63
2022/04/22 04:45:56;;;;;;;21.02;9.15;;;11.10;99.90;;;;;;5050469;28;20461;-62
2022/04/22 04:48:22;;;;;;;20.15;9.85;;;11.20;99.90;;;;;;5050811;28;20039;-66
2022/04/22 04:50:49;;;;;;;24.45;9.82;;;11.20;99.90;;;;;;5051336;28;20028;-63
2022/04/22 04:53:17;;;;;;;21.92;9.73;;;11.20;99.90;;;;;;5044931;28;20762;-66
2022/04/22 04:55:42;;;;;;;19.17;9.05;;;11.10;99.90;;;;;;5044820;28;20463;-64
2022/04/22 04:58:08;;;;;;;20.10;9.48;;;11.20;99.90;;;;;;5038809;28;20052;-63
2022/04/22 05:00:34;;;;;;;21.58;9.93;;;11.20;99.90;;;;;;5043866;28;20048;-63
2022/04/22 05:03:00;;;;;;;24.63;10.75;;;11.20;99.90;;;;;;5045065;28;20461;-65
2022/04/22 05:05:26;;;;;;;19.48;9.40;;;11.20;99.90;;;;;;5052275;28;20040;-65
2022/04/22 05:07:57;;;;;;;21.00;10.20;;;11.20;99.90;;;;;;5049800;28;20036;-65
2022/04/22 05:10:24;;;;;;;20.93;10.30;;;11.10;99.90;;;;;;5045051;28;20137;-65
2022/04/22 05:12:50;;;;;;;25.23;11.07;;;11.20;99.90;;;;;;5048039;28;20125;-66
2022/04/22 05:15:17;;;;;;;20.73;9.48;;;11.10;99.90;;;;;;5038106;28;20456;-65
2022/04/22 05:17:44;;;;;;;23.25;10.90;;;11.10;99.90;;;;;;5045982;28;20122;-65
2022/04/22 05:20:12;;;;;;;23.77;10.93;;;11.20;99.90;;;;;;5045409;28;20137;-64
2022/04/22 05:22:39;;;;;;;27.23;12.05;;;11.20;99.90;;;;;;5051273;28;20029;-64
2022/04/22 05:25:06;;;;;;;21.48;11.07;;;11.20;99.90;;;;;;5034923;28;20017;-67
2022/04/22 05:27:32;;;;;;;26.13;10.98;;;11.20;99.90;;;;;;5044575;28;20076;-66
2022/04/22 05:32:47;;;;;;;22.13;10.50;;;11.30;99.90;;;;;;5051297;28;20044;-64
2022/04/22 05:35:14;;;;;;;20.75;11.18;;;11.30;99.90;;;;;;5050832;28;20025;-66
2022/04/22 05:37:43;;;;;;;23.08;11.15;;;11.40;99.90;;;;;;5043924;28;20109;-62
2022/04/22 05:40:10;;;;;;;24.48;10.95;;;11.40;99.90;;;;;;5042051;28;20060;-63
2022/04/22 05:42:38;;;;;;;24.88;11.65;;;11.50;99.90;;;;;;5048667;28;21297;-62
2022/04/22 05:45:05;;;;;;;25.98;11.80;;;11.50;99.90;;;;;;5032163;28;20031;-62
2022/04/22 05:47:31;;;;;;;22.45;11.02;;;11.60;99.90;;;;;;5047654;28;20029;-66
2022/04/22 05:49:56;;;;;;;25.45;11.38;;;11.70;99.90;;;;;;5051558;28;20039;-64
2022/04/22 05:52:22;;;;;;;27.90;11.23;;;11.70;99.90;;;;;;5052194;28;20032;-62
2022/04/22 05:54:47;;;;;;;24.35;10.95;;;11.80;99.90;;;;;;5051186;28;20036;-63
2022/04/22 05:57:13;;;;;;;20.92;10.23;;;11.80;99.90;;;;;;5038956;28;20056;-65
2022/04/22 05:59:38;;;;;;;25.67;11.02;;;11.80;99.90;;;;;;5051274;28;20447;-65
2022/04/22 06:02:05;;;;;;;26.10;11.15;;;11.90;99.90;;;;;;5051492;28;20021;-65
2022/04/22 06:04:30;;;;;;;19.27;10.07;;;11.90;99.90;;;;;;5051664;28;20112;-63
2022/04/22 06:06:56;;;;;;;20.10;9.63;;;12.00;99.90;;;;;;5052842;28;20120;-65
2022/04/22 06:12:06;;;;;;;23.73;10.68;;;12.10;99.90;;;;;;5054130;28;20135;-65
2022/04/22 06:14:31;;;;;;;24.30;10.35;;;12.20;99.90;;;;;;5054772;28;20519;-63
2022/04/22 06:16:57;;;;;;;21.65;10.07;;;12.30;99.90;;;;;;5054273;28;20087;-65
2022/04/22 06:19:22;;;;;;;20.40;9.40;;;12.30;99.90;;;;;;5055241;28;20036;-65
2022/04/22 06:21:47;;;;;;;19.05;9.25;;;12.40;99.90;;;;;;5053990;28;20469;-67
2022/04/22 06:24:13;;;;;;;22.58;9.93;;;12.50;99.90;;;;;;5054126;28;20100;-65
2022/04/22 06:26:39;;;;;;;20.50;9.40;;;12.60;99.90;;;;;;5055014;28;20311;-63
2022/04/22 06:29:04;;;;;;;20.67;9.60;;;12.70;99.90;;;;;;5054694;28;20110;-65
2022/04/22 06:31:30;;;;;;;27.70;9.38;;;12.80;99.90;;;;;;5049092;28;20175;-64
2022/04/22 06:33:56;;;;;;;22.15;9.95;;;12.90;99.90;;;;;;5048181;28;20029;-65
2022/04/22 06:36:28;;;;;;;20.65;9.07;;;13.00;99.90;;;;;;5052107;28;20032;-67
2022/04/22 06:38:58;;;;;;;20.65;9.02;;;13.20;99.90;;;;;;5052050;28;20045;-64
2022/04/22 06:46:56;;;;;;;21.55;8.93;;;14.10;99.90;;;;;;5051691;28;20355;-66
2022/04/22 06:49:23;;;;;;;18.65;8.10;;;14.40;99.90;;;;;;5052566;28;20028;-67
2022/04/22 06:51:50;;;;;;;17.23;6.93;;;14.60;99.90;;;;;;5038929;28;20026;-63
2022/04/22 06:54:15;;;;;;;16.25;7.30;;;14.90;99.90;;;;;;5047351;28;20024;-67
2022/04/22 06:56:41;;;;;;;17.52;8.38;;;15.10;99.90;;;;;;5052868;28;20024;-66
2022/04/22 06:59:08;;;;;;;18.45;7.05;;;15.50;99.90;;;;;;5049116;28;20382;-66
2022/04/22 07:01:36;;;;;;;15.95;7.93;;;15.90;99.90;;;;;;5047187;28;20427;-64
2022/04/22 07:04:02;;;;;;;14.68;7.15;;;16.30;99.90;;;;;;5059765;28;20013;-64
2022/04/22 07:06:29;;;;;;;19.00;7.78;;;16.60;99.90;;;;;;5053632;28;20017;-65
2022/04/22 07:08:55;;;;;;;17.25;7.13;;;16.90;99.90;;;;;;5052306;28;20025;-66
2022/04/22 07:11:26;;;;;;;16.55;7.22;;;17.10;99.90;;;;;;5053540;28;20021;-64
2022/04/22 07:13:53;;;;;;;14.07;6.78;;;17.00;99.90;;;;;;5052499;28;20082;-64
2022/04/22 07:16:20;;;;;;;17.88;7.45;;;16.90;99.90;;;;;;5052641;28;20029;-67
2022/04/22 07:18:47;;;;;;;15.32;6.38;;;16.80;99.90;;;;;;5052399;28;20372;-67
2022/04/22 07:21:12;;;;;;;16.70;6.63;;;16.60;99.90;;;;;;5053424;28;20163;-67
2022/04/22 07:23:38;;;;;;;16.15;6.85;;;16.30;99.90;;;;;;5052253;28;20826;-64
2022/04/22 07:26:09;;;;;;;14.15;6.50;;;16.10;99.90;;;;;;5052686;28;20051;-63
2022/04/22 07:28:37;;;;;;;12.85;6.43;;;16.00;99.90;;;;;;5053447;28;20044;-65
2022/04/22 07:31:04;;;;;;;18.95;7.40;;;15.90;99.90;;;;;;5053842;28;20025;-62
2022/04/22 07:33:31;;;;;;;15.40;6.90;;;15.80;99.90;;;;;;5053764;28;20500;-62
2022/04/22 07:35:56;;;;;;;15.23;7.70;;;15.70;99.90;;;;;;5053203;28;20021;-63
2022/04/22 07:38:24;;;;;;;19.67;7.78;;;15.80;99.90;;;;;;5053289;28;20469;-64
2022/04/22 07:40:51;;;;;;;15.98;7.53;;;15.90;99.90;;;;;;5053448;28;20021;-63
2022/04/22 07:48:52;;;;;;;20.95;7.18;;;16.50;99.90;;;;;;5053661;28;20044;-68
2022/04/22 07:51:19;;;;;;;15.85;6.82;;;16.60;99.90;;;;;;5053453;28;20048;-63
2022/04/22 07:53:45;;;;;;;16.42;6.60;;;16.80;99.90;;;;;;5049350;28;20036;-63
2022/04/22 07:56:10;;;;;;;13.85;6.43;;;17.10;99.90;;;;;;5052410;28;20021;-64
2022/04/22 07:58:36;;;;;;;13.10;6.22;;;17.40;99.90;;;;;;5050506;28;20048;-64
2022/04/22 08:01:02;;;;;;;14.60;6.32;;;17.90;99.80;;;;;;5052857;28;20021;-66
2022/04/22 08:03:28;;;;;;;15.25;6.47;;;18.50;98.90;;;;;;5052567;28;20071;-65
2022/04/22 08:05:54;;;;;;;13.90;6.18;;;19.10;97.90;;;;;;5051796;28;20150;-65
2022/04/22 08:08:19;;;;;;;14.88;5.97;;;19.60;96.90;;;;;;5053280;28;20040;-63
2022/04/22 08:10:45;;;;;;;13.82;6.40;;;19.90;95.90;;;;;;5053075;28;20036;-64
2022/04/22 08:13:10;;;;;;;10.38;5.65;;;20.20;95.80;;;;;;5053350;28;20025;-63
2022/04/22 08:15:36;;;;;;;12.05;5.60;;;20.60;94.90;;;;;;5064145;28;20056;-64
2022/04/22 08:18:03;;;;;;;11.02;5.75;;;21.00;94.10;;;;;;5072952;28;20036;-64
2022/04/22 08:20:31;;;;;;;12.52;5.93;;;21.40;93.80;;;;;;5071876;28;20064;-63
2022/04/22 08:22:58;;;;;;;12.73;5.88;;;21.70;93.20;;;;;;5065378;28;20027;-64
2022/04/22 08:25:24;;;;;;;14.55;5.60;;;21.90;92.70;;;;;;5071043;28;20103;-64
2022/04/22 08:27:51;;;;;;;12.18;5.43;;;22.40;91.90;;;;;;5052862;28;20801;-64
2022/04/22 08:30:16;;;;;;;16.63;6.70;;;22.70;91.20;;;;;;5051116;28;20429;-64
2022/04/22 08:32:42;;;;;;;10.93;5.03;;;23.00;90.50;;;;;;5052364;28;20472;-63
2022/04/22 08:35:08;;;;;;;16.00;6.03;;;23.40;89.70;;;;;;5052322;28;20017;-64
2022/04/22 08:37:33;;;;;;;9.45;5.38;;;23.60;88.80;;;;;;5052108;28;20036;-64
2022/04/22 08:39:59;;;;;;;10.82;5.40;;;24.00;86.80;;;;;;5051878;28;20055;-64
2022/04/22 08:42:25;;;;;;;10.30;5.05;;;24.20;84.80;;;;;;5052137;28;20029;-63
2022/04/22 08:44:54;;;;;;;11.90;5.32;;;24.40;83.20;;;;;;5051127;28;20071;-64
2022/04/22 08:50:19;;;;;;;10.82;5.22;;;24.40;81.60;;;;;;5036996;28;20048;-64
2022/04/22 08:52:56;;;;;;;10.80;5.85;;;24.60;81.70;;;;;;5052516;28;20458;-64
2022/04/22 08:55:24;;;;;;;12.80;5.50;;;24.70;80.80;;;;;;5050166;28;20043;-64
2022/04/22 08:57:51;;;;;;;13.82;5.68;;;24.70;79.80;;;;;;5052049;28;20021;-64
2022/04/22 09:00:22;;;;;;;10.60;5.85;;;24.80;79.90;;;;;;5051130;28;20044;-64
2022/04/22 09:02:48;;;;;;;12.93;5.22;;;25.00;79.00;;;;;;5051506;28;20028;-64
2022/04/22 09:05:14;;;;;;;11.85;5.00;;;25.00;77.90;;;;;;5051878;28;20021;-65
2022/04/22 09:07:42;;;;;;;12.88;5.28;;;24.80;78.20;;;;;;5051848;28;20092;-64
2022/04/22 09:10:08;;;;;;;9.80;4.90;;;24.80;78.00;;;;;;5051602;28;20368;-64
2022/04/22 09:12:35;;;;;;;12.48;5.85;;;24.80;77.70;;;;;;5051992;28;20123;-65
2022/04/22 09:15:00;;;;;;;11.32;5.00;;;24.80;77.70;;;;;;5052399;28;20066;-63
2022/04/22 09:17:31;;;;;;;10.27;5.00;;;24.70;78.20;;;;;;5052082;28;20115;-63
2022/04/22 09:20:00;;;;;;;16.48;5.72;;;24.40;78.30;;;;;;5050707;28;20094;-63
2022/04/22 09:22:27;;;;;;;11.00;5.03;;;24.40;78.60;;;;;;5051519;28;21155;-63
2022/04/22 09:24:56;;;;;;;12.63;4.95;;;24.60;78.00;;;;;;5051411;28;20037;-63
2022/04/22 09:27:31;;;;;;;12.98;5.78;;;24.60;77.70;;;;;;5051430;28;20477;-63
2022/04/22 09:29:57;;;;;;;12.55;5.78;;;24.50;77.60;;;;;;5052032;28;20021;-63
2022/04/22 09:32:27;;;;;;;10.73;4.28;;;24.50;77.80;;;;;;5051574;28;20354;-64
2022/04/22 09:34:56;;;;;;;11.40;5.78;;;24.70;77.20;;;;;;5051254;28;20056;-64
2022/04/22 09:42:56;;;;;;;10.13;5.18;;;25.20;76.40;;;;;;5054981;28;20074;-64
2022/04/22 09:45:33;;;;;;;11.02;4.90;;;25.40;76.00;;;;;;5055905;28;20158;-64
2022/04/22 09:47:59;;;;;;;9.60;4.82;;;25.60;75.20;;;;;;5055640;28;20032;-64
2022/04/22 09:50:42;;;;;;;11.90;4.78;;;25.60;74.70;;;;;;5055005;28;20025;-64
2022/04/22 09:53:12;;;;;;;10.00;4.07;;;25.70;74.70;;;;;;5055228;28;20453;-65
2022/04/22 09:55:53;;;;;;;7.28;4.43;;;25.80;74.00;;;;;;5055117;28;20025;-64
2022/04/22 09:58:26;;;;;;;10.45;4.43;;;25.70;74.00;;;;;;5055494;28;20024;-64
2022/04/22 10:00:56;;;;;;;8.70;4.63;;;25.80;73.30;;;;;;5055570;28;20025;-64
2022/04/22 10:03:23;;;;;;;10.50;4.50;;;25.60;72.80;;;;;;5055248;28;20036;-64
2022/04/22 10:05:52;;;;;;;9.65;3.80;;;25.40;72.30;;;;;;5051227;28;20025;-63
2022/04/22 10:08:19;;;;;;;9.52;4.63;;;25.50;71.70;;;;;;5055444;28;20606;-64
2022/04/22 10:10:46;;;;;;;9.93;4.20;;;25.50;71.30;;;;;;5055117;28;20098;-64
2022/04/22 10:13:17;;;;;;;10.77;4.30;;;25.50;70.70;;;;;;5054105;28;20029;-64
2022/04/22 10:15:45;;;;;;;10.55;3.47;;;25.70;70.70;;;;;;5055189;28;20460;-64
2022/04/22 10:18:13;;;;;;;6.90;3.55;;;25.90;68.80;;;;;;5054706;28;20115;-64
2022/04/22 10:20:40;;;;;;;7.35;3.30;;;26.00;68.40;;;;;;5054948;28;20072;-64
2022/04/22 10:23:06;;;;;;;9.75;4.35;;;25.80;67.80;;;;;;5054644;28;20338;-63
2022/04/22 10:25:32;;;;;;;12.70;4.30;;;25.60;67.80;;;;;;5055044;28;20096;-64
2022/04/22 10:28:01;;;;;;;10.63;3.50;;;25.50;68.00;;;;;;5053378;28;20041;-64
2022/04/22 10:30:28;;;;;;;6.70;3.60;;;25.60;67.40;;;;;;5054438;28;20538;-64
2022/04/22 10:32:55;;;;;;;5.60;3.22;;;25.60;67.10;;;;;;5054549;28;20021;-64
2022/04/22 10:35:24;;;;;;;5.70;3.50;;;25.60;67.40;;;;;;5052992;28;20028;-64
2022/04/22 10:37:52;;;;;;;4.72;3.00;;;25.90;67.00;;;;;;5054148;28;20036;-64
2022/04/22 10:40:19;;;;;;;8.65;3.53;;;25.90;66.00;;;;;;5053723;28;20087;-63
2022/04/22 10:42:46;;;;;;;7.90;3.53;;;25.80;65.70;;;;;;5052780;28;20025;-63
2022/04/22 10:47:56;;;;;;;5.70;2.95;;;26.00;65.30;;;;;;5054126;28;20075;-63
2022/04/22 10:50:35;;;;;;;5.38;3.20;;;25.90;64.30;;;;;;5053801;28;20381;-63
2022/04/22 10:53:24;;;;;;;7.32;3.15;;;25.70;64.40;;;;;;5053131;28;20025;-63
2022/04/22 10:55:50;;;;;;;10.63;2.88;;;25.70;63.50;;;;;;5053776;28;20239;-64
2022/04/22 10:58:15;;;;;;;7.63;3.03;;;25.80;62.30;;;;;;5053550;28;20033;-64
2022/04/22 11:00:41;;;;;;;4.53;2.80;;;25.60;62.30;;;;;;5053910;28;20040;-64
2022/04/22 11:03:19;;;;;;;5.85;2.40;;;25.60;61.10;;;;;;5053786;28;20032;-64
2022/04/22 11:05:50;;;;;;;6.13;2.53;;;25.60;61.10;;;;;;5053594;28;20020;-64
2022/04/22 11:08:29;;;;;;;5.97;2.90;;;25.60;61.20;;;;;;5057141;28;20023;-64
2022/04/22 11:10:54;;;;;;;5.43;2.60;;;25.70;60.70;;;;;;5062026;28;20037;-64
2022/04/22 11:13:38;;;;;;;4.65;2.30;;;26.10;60.70;;;;;;5054345;28;20461;-64
2022/04/22 11:16:15;;;;;;;5.35;3.03;;;26.40;59.60;;;;;;5046691;28;20033;-63
2022/04/22 11:18:45;;;;;;;4.25;2.50;;;26.40;60.00;;;;;;5054173;28;20029;-63
2022/04/22 11:21:19;;;;;;;5.82;2.95;;;26.40;59.80;;;;;;5053907;28;20449;-64
2022/04/22 11:23:45;;;;;;;5.97;3.05;;;26.40;59.40;;;;;;5053280;28;20025;-63
2022/04/22 11:26:15;;;;;;;4.82;3.08;;;26.70;59.10;;;;;;5052598;28;20024;-64
2022/04/22 11:28:44;;;;;;;8.65;2.90;;;26.80;59.70;;;;;;5070148;28;20052;-64
2022/04/22 11:31:11;;;;;;;4.43;2.70;;;26.90;58.70;;;;;;5068526;28;20435;-63
2022/04/22 11:33:56;;;;;;;6.15;2.78;;;26.80;58.20;;;;;;5054804;28;20351;-63
2022/04/22 11:36:25;;;;;;;6.05;2.70;;;26.60;58.50;;;;;;5056182;28;20485;-63
2022/04/22 11:38:53;;;;;;;5.05;3.08;;;26.40;58.50;;;;;;5053738;28;20029;-63
2022/04/22 11:41:19;;;;;;;6.03;2.72;;;26.20;59.00;;;;;;5053084;28;20029;-63
2022/04/22 11:43:46;;;;;;;4.82;2.60;;;26.30;59.00;;;;;;5052716;28;20432;-63
2022/04/22 11:46:13;;;;;;;5.03;2.67;;;26.80;58.60;;;;;;5053575;28;20017;-63
2022/04/22 11:48:53;;;;;;;6.63;2.78;;;26.80;58.80;;;;;;5053428;28;20330;-63
2022/04/22 11:51:20;;;;;;;5.53;2.75;;;26.70;57.70;;;;;;5053055;28;20087;-63
2022/04/22 11:53:52;;;;;;;5.88;2.63;;;26.50;57.50;;;;;;5053058;28;20016;-63
2022/04/22 11:56:23;;;;;;;7.75;3.03;;;26.40;57.80;;;;;;5052690;28;20457;-63
2022/04/22 11:58:56;;;;;;;9.17;2.50;;;26.40;57.30;;;;;;5052841;28;20041;-63
2022/04/22 12:06:58;;;;;;;6.93;2.90;;;26.20;57.40;;;;;;5050432;28;20102;-63
2022/04/22 12:09:25;;;;;;;4.85;2.58;;;26.30;57.20;;;;;;5053147;28;20087;-63
2022/04/22 12:11:51;;;;;;;6.32;2.70;;;26.50;57.10;;;;;;5053220;28;20021;-64
2022/04/22 12:14:24;;;;;;;7.82;3.03;;;26.20;57.20;;;;;;5053248;28;20082;-63
2022/04/22 12:17:01;;;;;;;6.20;2.47;;;26.00;57.30;;;;;;5053374;28;20096;-64
2022/04/22 12:19:27;;;;;;;4.80;2.30;;;26.00;57.20;;;;;;5052955;28;20079;-63
2022/04/22 12:21:54;;;;;;;5.40;3.10;;;26.10;57.10;;;;;;5052828;28;20025;-63
2022/04/22 12:24:21;;;;;;;5.25;2.53;;;26.20;57.40;;;;;;5052528;28;20025;-63
2022/04/22 12:26:47;;;;;;;5.50;2.78;;;26.30;57.60;;;;;;5052135;28;20420;-63
2022/04/22 12:29:18;;;;;;;5.88;2.95;;;26.40;56.70;;;;;;5051078;28;20388;-63
2022/04/22 12:31:46;;;;;;;5.03;2.53;;;26.60;56.80;;;;;;5052457;28;20058;-63
2022/04/22 12:34:24;;;;;;;6.53;2.55;;;26.50;56.00;;;;;;5052109;28;20055;-63
2022/04/22 12:36:56;;;;;;;5.15;2.28;;;26.30;56.00;;;;;;5050866;28;20020;-63
2022/04/22 12:39:40;;;;;;;8.00;2.80;;;26.20;55.40;;;;;;5051859;28;20021;-63
2022/04/22 12:42:07;;;;;;;3.67;2.40;;;25.90;55.50;;;;;;5052419;28;20025;-63
2022/04/22 12:44:33;;;;;;;5.40;2.22;;;25.60;56.40;;;;;;5052556;28;20032;-63
2022/04/22 12:52:53;;;;;;;7.70;2.65;;;24.50;56.40;;;;;;5051849;28;20171;-63
2022/04/22 12:55:19;;;;;;;5.30;2.60;;;24.10;57.50;;;;;;5052186;28;20104;-63
2022/04/22 12:57:57;;;;;;;5.03;2.60;;;23.80;58.80;;;;;;5052118;28;20013;-63
2022/04/22 13:00:23;;;;;;;5.35;2.30;;;23.50;58.60;;;;;;5051960;28;20175;-64
2022/04/22 13:02:48;;;;;;;7.05;2.75;;;23.20;58.80;;;;;;5051860;28;20532;-62
2022/04/22 13:05:22;;;;;;;3.85;2.47;;;22.80;59.60;;;;;;5051944;28;20017;-63
2022/04/22 13:07:51;;;;;;;8.02;2.58;;;22.60;60.00;;;;;;5052153;28;20024;-63
2022/04/22 13:10:22;;;;;;;7.45;2.42;;;22.50;60.10;;;;;;5040274;28;20075;-63
2022/04/22 13:12:48;;;;;;;3.08;1.85;;;22.20;60.60;;;;;;5043677;28;20075;-65
2022/04/22 13:15:18;;;;;;;5.60;2.60;;;22.00;61.60;;;;;;5040356;28;20013;-64
2022/04/22 13:17:50;;;;;;;4.18;2.35;;;21.80;61.70;;;;;;5045628;28;20480;-65
2022/04/22 13:20:20;;;;;;;7.78;2.28;;;21.70;61.70;;;;;;5040333;28;20462;-65
2022/04/22 13:22:47;;;;;;;7.38;2.30;;;21.70;62.00;;;;;;5036280;28;20100;-63
2022/04/22 13:25:15;;;;;;;4.85;2.30;;;21.70;62.40;;;;;;5046060;28;20104;-66
2022/04/22 13:27:42;;;;;;;3.70;2.25;;;21.70;61.90;;;;;;5055652;28;20376;-63
2022/04/22 13:30:11;;;;;;;6.88;3.05;;;21.60;62.30;;;;;;5055416;28;20421;-63
2022/04/22 13:32:38;;;;;;;6.40;2.50;;;21.50;62.40;;;;;;5054219;28;20388;-63
2022/04/22 13:35:05;;;;;;;3.03;2.28;;;21.40;62.90;;;;;;5055535;28;20096;-64
2022/04/22 13:37:34;;;;;;;7.35;2.88;;;21.30;63.10;;;;;;5048542;28;20381;-63
2022/04/22 13:40:00;;;;;;;4.63;2.53;;;21.20;63.20;;;;;;5050998;28;20044;-64
2022/04/22 13:42:26;;;;;;;4.53;2.53;;;21.10;63.20;;;;;;5035527;28;20049;-63
2022/04/22 13:53:04;;;;;;;8.23;2.90;;;21.10;64.10;;;;;;5035834;28;20033;-63
2022/04/22 13:55:30;;;;;;;5.32;2.45;;;21.10;64.00;;;;;;5054074;28;20024;-64
2022/04/22 13:57:57;;;;;;;7.18;3.00;;;20.90;64.50;;;;;;5055278;28;20025;-64
2022/04/22 14:00:23;;;;;;;5.25;3.00;;;20.90;65.00;;;;;;5055215;28;20083;-63
2022/04/22 14:02:48;;;;;;;3.92;2.30;;;20.90;65.70;;;;;;5055070;28;20025;-63
2022/04/22 14:05:21;;;;;;;7.82;3.13;;;21.00;66.00;;;;;;5055065;28;20025;-63
2022/04/22 14:07:48;;;;;;;6.45;2.70;;;21.00;66.10;;;;;;5055268;28;20441;-63
2022/04/22 14:10:15;;;;;;;6.57;2.83;;;21.00;66.30;;;;;;5055472;28;20048;-62
2022/04/22 14:12:40;;;;;;;8.35;3.08;;;21.00;66.30;;;;;;5055462;28;20013;-63
2022/04/22 14:15:06;;;;;;;6.07;2.75;;;21.00;66.10;;;;;;5055062;28;20368;-63